createdAt,value
2023-01-29T00:02:21.647Z,3.90
2023-01-29T00:04:48.052Z,3.58
2023-01-29T00:07:14.532Z,4.50
2023-01-29T00:09:40.823Z,4.63
2023-01-29T00:12:07.731Z,4.20
2023-01-29T00:14:34.228Z,4.60
2023-01-29T00:17:01.256Z,3.80
2023-01-29T00:19:27.830Z,4.72
2023-01-29T00:21:54.149Z,3.92
2023-01-29T00:24:20.564Z,4.85
2023-01-29T00:26:47.034Z,4.75
2023-01-29T00:29:13.361Z,5.30
2023-01-29T00:31:39.763Z,4.85
2023-01-29T00:34:06.079Z,3.70
2023-01-29T00:36:32.452Z,3.30
2023-01-29T00:39:00.688Z,3.90
2023-01-29T00:41:29.417Z,4.72
2023-01-29T00:43:56.139Z,3.88
2023-01-29T00:46:22.511Z,4.45
2023-01-29T00:48:48.811Z,4.95
2023-01-29T00:51:15.098Z,4.18
2023-01-29T00:53:41.372Z,3.92
2023-01-29T00:56:07.654Z,3.80
2023-01-29T00:58:33.965Z,4.30
2023-01-29T01:01:03.012Z,5.53
2023-01-29T01:03:30.001Z,3.88
2023-01-29T01:06:03.924Z,4.18
2023-01-29T01:08:30.217Z,3.50
2023-01-29T01:11:01.923Z,3.80
2023-01-29T01:13:28.975Z,3.85
2023-01-29T01:15:55.274Z,4.10
2023-01-29T01:18:21.583Z,3.72
2023-01-29T01:20:48.181Z,3.63
2023-01-29T01:23:14.454Z,3.42
2023-01-29T01:25:41.126Z,3.47
2023-01-29T01:28:08.581Z,3.95
2023-01-29T01:30:34.860Z,3.63
2023-01-29T01:33:01.140Z,3.88
2023-01-29T01:35:27.629Z,4.20
2023-01-29T01:37:54.005Z,4.20
2023-01-29T01:40:22.177Z,3.67
2023-01-29T01:42:50.629Z,3.53
2023-01-29T01:45:35.654Z,3.97
2023-01-29T01:48:22.316Z,4.00
2023-01-29T01:50:51.514Z,3.55
2023-01-29T01:53:24.357Z,3.53
2023-01-29T01:55:56.011Z,3.90
2023-01-29T01:58:31.610Z,3.50
2023-01-29T02:00:59.014Z,4.78
2023-01-29T02:03:27.831Z,3.90
2023-01-29T02:05:57.154Z,3.67
2023-01-29T02:08:34.761Z,4.45
2023-01-29T02:11:01.301Z,4.32
2023-01-29T02:13:27.641Z,3.75
2023-01-29T02:15:53.920Z,3.65
2023-01-29T02:18:21.520Z,4.28
2023-01-29T02:21:18.781Z,3.30
2023-01-29T02:24:11.410Z,3.88
2023-01-29T02:27:07.098Z,3.80
2023-01-29T02:29:44.357Z,3.85
2023-01-29T02:32:39.070Z,3.78
2023-01-29T02:35:45.124Z,3.67
2023-01-29T02:38:24.949Z,3.28
2023-01-29T02:41:06.246Z,3.00
2023-01-29T02:43:55.742Z,3.67
2023-01-29T02:46:46.412Z,4.43
2023-01-29T02:49:30.731Z,3.17
2023-01-29T02:52:11.859Z,3.72
2023-01-29T02:54:46.746Z,3.13
2023-01-29T02:57:35.090Z,4.63
2023-01-29T03:00:27.739Z,2.95
2023-01-29T03:03:06.876Z,3.78
2023-01-29T03:05:58.467Z,3.50
2023-01-29T03:08:32.693Z,4.45
2023-01-29T03:11:03.670Z,3.35
2023-01-29T03:14:06.327Z,3.72
2023-01-29T03:16:41.858Z,3.83
2023-01-29T03:19:28.342Z,3.88
2023-01-29T03:21:58.043Z,3.17
2023-01-29T03:24:42.382Z,4.00
2023-01-29T03:27:12.779Z,3.40
2023-01-29T03:29:42.279Z,3.75
2023-01-29T03:32:10.301Z,3.60
2023-01-29T03:37:29.329Z,3.70
2023-01-29T03:39:55.911Z,3.33
2023-01-29T03:42:28.723Z,3.33
2023-01-29T03:45:04.067Z,3.80
2023-01-29T03:47:50.357Z,3.65
2023-01-29T03:50:47.780Z,3.83
2023-01-29T03:53:24.736Z,3.67
2023-01-29T03:56:08.927Z,3.63
2023-01-29T03:58:44.555Z,4.00
2023-01-29T04:01:20.454Z,4.07
2023-01-29T04:03:58.474Z,3.97
2023-01-29T04:06:29.818Z,4.80
2023-01-29T04:09:12.256Z,3.70
2023-01-29T04:11:44.999Z,3.60
2023-01-29T04:14:12.270Z,4.07
2023-01-29T04:16:41.864Z,3.80
2023-01-29T04:19:08.247Z,4.05
2023-01-29T04:21:35.446Z,3.75
2023-01-29T04:24:01.791Z,4.22
2023-01-29T04:26:28.039Z,4.20
2023-01-29T04:29:18.269Z,4.15
2023-01-29T04:32:13.504Z,4.50
2023-01-29T04:35:17.384Z,3.42
2023-01-29T04:38:11.853Z,3.97
2023-01-29T04:41:05.215Z,3.13
2023-01-29T04:43:56.200Z,4.50
2023-01-29T04:46:56.396Z,3.90
2023-01-29T04:49:39.199Z,3.47
2023-01-29T04:52:14.243Z,3.65
2023-01-29T04:54:43.160Z,4.40
2023-01-29T04:57:17.957Z,3.97
2023-01-29T04:59:55.658Z,4.60
2023-01-29T05:02:24.547Z,3.97
2023-01-29T05:04:52.649Z,4.07
2023-01-29T05:07:20.575Z,4.32
2023-01-29T05:12:17.298Z,3.53
2023-01-29T05:14:45.795Z,4.30
2023-01-29T05:17:18.679Z,3.50
2023-01-29T05:19:46.477Z,3.55
2023-01-29T05:22:16.737Z,3.95
2023-01-29T05:24:43.196Z,4.95
2023-01-29T05:27:17.307Z,4.05
2023-01-29T05:32:12.495Z,3.35
2023-01-29T05:34:38.779Z,4.13
2023-01-29T05:37:05.242Z,3.63
2023-01-29T05:39:31.525Z,3.70
2023-01-29T05:41:57.816Z,4.30
2023-01-29T05:44:24.142Z,3.33
2023-01-29T05:46:50.933Z,3.28
2023-01-29T05:49:18.259Z,3.58
2023-01-29T05:51:44.594Z,3.63
2023-01-29T05:54:12.236Z,3.45
2023-01-29T05:56:39.305Z,4.03
2023-01-29T05:59:06.171Z,3.20
2023-01-29T06:01:32.678Z,3.90
2023-01-29T06:03:59.034Z,3.78
2023-01-29T06:06:25.365Z,3.67
2023-01-29T06:08:51.622Z,3.75
2023-01-29T06:11:18.092Z,3.47
2023-01-29T06:13:45.361Z,3.83
2023-01-29T06:16:13.110Z,3.45
2023-01-29T06:18:40.651Z,3.17
2023-01-29T06:21:10.046Z,2.65
2023-01-29T06:23:36.939Z,4.13
2023-01-29T06:26:06.323Z,3.63
2023-01-29T06:28:33.157Z,3.70
2023-01-29T06:31:19.993Z,3.50
2023-01-29T06:33:48.184Z,4.32
2023-01-29T06:36:14.555Z,4.20
2023-01-29T06:38:40.912Z,4.95
2023-01-29T06:41:12.006Z,3.47
2023-01-29T06:43:39.188Z,3.65
2023-01-29T06:46:08.157Z,3.80
2023-01-29T06:48:34.803Z,3.60
2023-01-29T06:51:05.965Z,3.65
2023-01-29T06:53:33.896Z,5.03
2023-01-29T07:03:19.381Z,4.03
2023-01-29T07:05:52.570Z,4.50
2023-01-29T07:08:19.343Z,4.95
2023-01-29T07:10:45.610Z,3.30
2023-01-29T07:13:11.878Z,3.30
2023-01-29T07:15:38.350Z,3.80
2023-01-29T07:18:04.691Z,3.60
2023-01-29T07:20:31.294Z,3.33
2023-01-29T07:22:58.175Z,3.95
2023-01-29T07:25:25.610Z,4.00
2023-01-29T07:27:52.021Z,3.92
2023-01-29T07:30:18.782Z,3.45
2023-01-29T07:32:45.303Z,3.95
2023-01-29T07:35:11.669Z,3.47
2023-01-29T07:37:37.945Z,4.07
2023-01-29T07:40:04.930Z,3.78
2023-01-29T07:42:31.244Z,4.57
2023-01-29T07:44:57.616Z,4.38
2023-01-29T07:47:23.938Z,4.00
2023-01-29T07:49:50.190Z,4.40
2023-01-29T07:52:16.506Z,3.85
2023-01-29T07:54:42.825Z,4.05
2023-01-29T07:57:09.154Z,4.25
2023-01-29T07:59:35.412Z,3.80
2023-01-29T08:02:01.785Z,4.20
2023-01-29T08:04:28.182Z,3.92
2023-01-29T08:06:54.455Z,3.90
2023-01-29T08:09:20.748Z,4.13
2023-01-29T08:11:47.091Z,3.83
2023-01-29T08:14:13.441Z,4.22
2023-01-29T08:16:39.701Z,4.80
2023-01-29T08:19:06.024Z,4.57
2023-01-29T08:21:32.311Z,5.07
2023-01-29T08:23:58.780Z,4.43
2023-01-29T08:26:25.103Z,4.25
2023-01-29T08:28:51.511Z,4.72
2023-01-29T08:31:18.952Z,4.95
2023-01-29T08:33:45.277Z,4.93
2023-01-29T08:36:11.708Z,5.70
2023-01-29T08:38:38.327Z,4.28
2023-01-29T08:41:04.881Z,4.53
2023-01-29T08:43:31.182Z,6.07
2023-01-29T08:45:57.616Z,4.95
2023-01-29T08:48:23.907Z,4.00
2023-01-29T08:50:50.167Z,5.68
2023-01-29T08:53:16.583Z,4.25
2023-01-29T08:55:42.865Z,4.57
2023-01-29T08:58:11.259Z,4.88
2023-01-29T09:00:38.081Z,5.00
2023-01-29T09:03:04.693Z,4.80
2023-01-29T09:05:31.006Z,5.82
2023-01-29T09:07:57.459Z,4.75
2023-01-29T09:10:23.762Z,4.60
2023-01-29T09:12:50.066Z,4.57
2023-01-29T09:15:16.792Z,4.85
2023-01-29T09:17:43.214Z,5.15
2023-01-29T09:20:10.457Z,4.53
2023-01-29T09:22:36.805Z,4.78
2023-01-29T09:25:04.113Z,4.60
2023-01-29T09:27:30.552Z,4.53
2023-01-29T09:29:56.851Z,4.55
2023-01-29T09:32:49.690Z,4.60
2023-01-29T09:35:09.783Z,5.57
2023-01-29T09:37:36.047Z,4.90
2023-01-29T09:40:02.365Z,5.60
2023-01-29T09:42:37.972Z,5.38
2023-01-29T09:45:23.047Z,5.20
2023-01-29T09:47:49.354Z,4.63
2023-01-29T09:50:42.310Z,5.40
2023-01-29T09:53:28.844Z,4.72
2023-01-29T09:56:11.144Z,4.57
2023-01-29T09:58:40.897Z,5.35
2023-01-29T10:01:17.552Z,5.68
2023-01-29T10:04:07.747Z,6.47
2023-01-29T10:07:16.788Z,5.82
2023-01-29T10:10:00.850Z,5.60
2023-01-29T10:12:53.427Z,4.85
2023-01-29T10:15:28.810Z,4.45
2023-01-29T10:18:16.942Z,5.20
2023-01-29T10:21:19.524Z,4.88
2023-01-29T10:24:00.581Z,4.47
2023-01-29T10:26:28.650Z,4.28
2023-01-29T10:28:58.528Z,4.57
2023-01-29T10:31:30.712Z,5.13
2023-01-29T10:34:07.211Z,5.63
2023-01-29T10:36:43.252Z,6.03
2023-01-29T10:39:16.451Z,5.03
2023-01-29T10:42:04.013Z,5.28
2023-01-29T10:45:00.364Z,5.53
2023-01-29T10:48:09.473Z,4.82
2023-01-29T10:50:52.121Z,5.22
2023-01-29T10:53:24.658Z,5.60
2023-01-29T10:56:22.647Z,6.82
2023-01-29T10:58:53.568Z,5.32
2023-01-29T11:01:19.905Z,5.55
2023-01-29T11:03:54.886Z,5.28
2023-01-29T11:06:24.739Z,4.97
2023-01-29T11:09:09.880Z,4.63
2023-01-29T11:12:01.138Z,4.95
2023-01-29T11:14:32.832Z,4.40
2023-01-29T11:16:59.297Z,4.72
2023-01-29T11:19:40.827Z,5.22
2023-01-29T11:22:14.825Z,4.75
2023-01-29T11:27:25.711Z,4.88
2023-01-29T11:29:53.466Z,4.63
2023-01-29T11:32:22.806Z,4.85
2023-01-29T11:34:58.146Z,4.72
2023-01-29T11:37:32.616Z,4.57
2023-01-29T11:39:59.004Z,4.72
2023-01-29T11:42:31.492Z,5.00
2023-01-29T11:44:57.791Z,4.97
2023-01-29T11:47:29.437Z,4.72
2023-01-29T11:49:58.117Z,5.13
2023-01-29T11:52:33.938Z,4.70
2023-01-29T11:55:07.403Z,5.50
2023-01-29T11:57:38.277Z,4.75
2023-01-29T12:00:07.824Z,3.88
2023-01-29T12:02:43.202Z,5.18
2023-01-29T12:05:18.269Z,4.80
2023-01-29T12:07:48.425Z,6.50
2023-01-29T12:10:33.365Z,5.03
2023-01-29T12:13:10.072Z,5.00
2023-01-29T12:15:40.968Z,4.45
2023-01-29T12:18:29.066Z,5.25
2023-01-29T12:21:05.377Z,4.95
2023-01-29T12:23:41.035Z,4.07
2023-01-29T12:26:16.251Z,4.85
2023-01-29T12:29:07.041Z,4.07
2023-01-29T12:32:05.360Z,3.90
2023-01-29T12:37:20.947Z,5.07
2023-01-29T12:39:49.398Z,4.25
2023-01-29T12:42:19.811Z,4.20
2023-01-29T12:45:01.471Z,3.58
2023-01-29T12:47:42.574Z,3.72
2023-01-29T12:50:24.087Z,3.83
2023-01-29T12:52:56.594Z,3.95
2023-01-29T12:55:27.803Z,4.50
2023-01-29T12:57:59.795Z,4.22
2023-01-29T13:00:29.743Z,4.25
2023-01-29T13:03:20.875Z,4.40
2023-01-29T13:05:52.126Z,3.58
2023-01-29T13:08:32.463Z,3.90
2023-01-29T13:11:02.773Z,3.90
2023-01-29T13:13:54.113Z,4.10
2023-01-29T13:16:25.916Z,4.20
2023-01-29T13:19:02.450Z,4.10
2023-01-29T13:21:37.074Z,3.67
2023-01-29T13:24:09.893Z,3.35
2023-01-29T13:26:37.292Z,3.75
2023-01-29T13:29:04.053Z,4.50
2023-01-29T13:31:39.700Z,4.05
2023-01-29T13:34:20.852Z,4.35
2023-01-29T13:36:57.224Z,3.80
2023-01-29T13:39:35.196Z,3.45
2023-01-29T13:42:14.324Z,4.03
2023-01-29T13:44:40.932Z,3.83
2023-01-29T13:47:09.945Z,3.67
2023-01-29T13:49:43.095Z,3.22
2023-01-29T13:52:35.676Z,3.47
2023-01-29T13:55:32.886Z,4.05
2023-01-29T13:58:04.369Z,3.80
2023-01-29T14:00:33.812Z,3.40
2023-01-29T14:03:00.154Z,4.18
2023-01-29T14:05:29.459Z,4.43
2023-01-29T14:08:03.437Z,3.80
2023-01-29T14:13:03.089Z,3.47
2023-01-29T14:15:32.886Z,3.50
2023-01-29T14:18:08.423Z,3.88
2023-01-29T14:20:46.077Z,3.25
2023-01-29T14:23:39.803Z,3.97
2023-01-29T14:26:21.122Z,3.80
2023-01-29T14:29:01.198Z,3.70
2023-01-29T14:34:04.947Z,3.50
2023-01-29T14:36:40.278Z,3.85
2023-01-29T14:39:17.474Z,3.95
2023-01-29T14:41:43.848Z,3.58
2023-01-29T14:44:44.130Z,3.65
2023-01-29T14:47:19.249Z,3.65
2023-01-29T14:49:51.561Z,3.92
2023-01-29T14:52:22.739Z,4.18
2023-01-29T14:54:51.145Z,3.97
2023-01-29T14:57:18.095Z,4.03
2023-01-29T14:59:53.222Z,7.25
2023-01-29T15:02:24.297Z,5.05
2023-01-29T15:04:58.260Z,4.32
2023-01-29T15:10:23.084Z,3.58
2023-01-29T15:12:54.659Z,4.25
2023-01-29T15:15:36.312Z,4.47
2023-01-29T15:18:29.036Z,3.67
2023-01-29T15:21:04.914Z,4.43
2023-01-29T15:23:34.125Z,4.63
2023-01-29T15:26:03.482Z,4.78
2023-01-29T15:28:31.728Z,4.90
2023-01-29T15:31:01.012Z,4.30
2023-01-29T15:33:28.544Z,3.75
2023-01-29T15:36:06.954Z,5.05
2023-01-29T15:38:36.616Z,5.07
2023-01-29T15:41:16.339Z,4.53
2023-01-29T15:43:55.874Z,4.43
2023-01-29T15:46:26.876Z,4.88
2023-01-29T15:48:55.905Z,4.10
2023-01-29T15:51:27.155Z,4.55
2023-01-29T15:54:03.483Z,4.60
2023-01-29T15:56:50.177Z,4.95
2023-01-29T15:59:22.374Z,5.22
2023-01-29T16:01:48.830Z,4.70
2023-01-29T16:04:20.560Z,5.13
2023-01-29T16:06:47.887Z,4.85
2023-01-29T16:09:25.853Z,4.63
2023-01-29T16:11:54.318Z,5.28
2023-01-29T16:14:24.275Z,5.53
2023-01-29T16:16:51.957Z,5.43
2023-01-29T16:19:27.611Z,6.25
2023-01-29T16:22:01.322Z,5.97
2023-01-29T16:24:29.258Z,5.80
2023-01-29T16:29:34.564Z,5.97
2023-01-29T16:32:02.317Z,6.00
2023-01-29T16:34:38.525Z,5.65
2023-01-29T16:37:16.094Z,5.05
2023-01-29T16:39:47.286Z,7.53
2023-01-29T16:42:13.584Z,6.72
2023-01-29T16:44:45.439Z,7.75
2023-01-29T16:47:14.413Z,6.97
2023-01-29T16:49:45.783Z,7.60
2023-01-29T16:52:23.878Z,8.05
2023-01-29T16:54:50.415Z,7.68
2023-01-29T16:57:24.574Z,7.72
2023-01-29T16:59:55.289Z,10.32
2023-01-29T17:02:31.399Z,10.48
2023-01-29T17:05:01.697Z,11.15
2023-01-29T17:07:28.905Z,11.55
2023-01-29T17:09:59.656Z,11.98
2023-01-29T17:12:28.399Z,10.52
2023-01-29T17:15:01.916Z,10.93
2023-01-29T17:17:33.968Z,9.88
2023-01-29T17:20:12.229Z,10.18
2023-01-29T17:22:38.606Z,12.68
2023-01-29T17:25:05.364Z,9.88
2023-01-29T17:27:31.881Z,10.27
2023-01-29T17:29:58.622Z,11.45
2023-01-29T17:32:25.338Z,13.30
2023-01-29T17:35:15.126Z,11.93
2023-01-29T17:37:41.888Z,13.63
2023-01-29T17:40:29.753Z,12.95
2023-01-29T17:42:56.017Z,12.18
2023-01-29T17:45:22.305Z,14.88
2023-01-29T17:47:48.600Z,13.52
2023-01-29T17:50:22.489Z,14.63
2023-01-29T17:52:49.718Z,17.42
2023-01-29T17:55:16.796Z,17.13
2023-01-29T17:57:43.356Z,19.48
2023-01-29T18:00:13.701Z,17.20
2023-01-29T18:02:40.011Z,15.93
2023-01-29T18:05:06.631Z,16.00
2023-01-29T18:07:32.971Z,15.73
2023-01-29T18:09:59.247Z,16.58
2023-01-29T18:12:25.740Z,16.40
2023-01-29T18:14:52.021Z,17.17
2023-01-29T18:17:18.733Z,15.75
2023-01-29T18:19:45.060Z,16.65
2023-01-29T18:22:11.366Z,15.65
2023-01-29T18:24:37.682Z,13.98
2023-01-29T18:27:04.085Z,12.68
2023-01-29T18:29:30.447Z,15.00
2023-01-29T18:31:56.843Z,13.48
2023-01-29T18:34:23.218Z,13.48
2023-01-29T18:36:49.635Z,12.38
2023-01-29T18:39:16.476Z,11.32
2023-01-29T18:41:42.971Z,13.13
2023-01-29T18:44:10.570Z,12.90
2023-01-29T18:46:36.922Z,13.23
2023-01-29T18:49:03.372Z,13.60
2023-01-29T18:51:29.694Z,13.85
2023-01-29T18:53:56.070Z,15.25
2023-01-29T18:56:22.418Z,13.68
2023-01-29T18:58:52.380Z,13.45
2023-01-29T19:01:22.138Z,13.68
2023-01-29T19:03:48.506Z,14.75
2023-01-29T19:06:14.864Z,13.25
2023-01-29T19:08:41.477Z,15.10
2023-01-29T19:11:07.775Z,16.10
2023-01-29T19:13:36.337Z,16.33
2023-01-29T19:16:06.424Z,17.73
2023-01-29T19:18:32.694Z,17.90
2023-01-29T19:20:58.997Z,16.20
2023-01-29T19:23:25.545Z,17.20
2023-01-29T19:25:51.876Z,17.85
2023-01-29T19:28:18.171Z,16.27
2023-01-29T19:30:44.575Z,18.88
2023-01-29T19:33:11.053Z,19.05
2023-01-29T19:35:37.490Z,18.27
2023-01-29T19:38:04.561Z,18.83
2023-01-29T19:40:30.881Z,20.42
2023-01-29T19:42:57.439Z,19.38
2023-01-29T19:45:48.891Z,19.75
2023-01-29T19:50:36.719Z,15.90
2023-01-29T19:53:03.154Z,16.75
2023-01-29T19:55:29.444Z,14.90
2023-01-29T19:57:55.760Z,15.63
2023-01-29T20:00:22.221Z,17.33
2023-01-29T20:02:48.513Z,17.95
2023-01-29T20:05:15.552Z,18.50
2023-01-29T20:07:42.474Z,18.25
2023-01-29T20:10:10.330Z,17.23
2023-01-29T20:12:37.951Z,18.35
2023-01-29T20:15:04.652Z,16.77
2023-01-29T20:17:30.935Z,14.68
2023-01-29T20:19:57.248Z,17.83
2023-01-29T20:22:23.535Z,17.58
2023-01-29T20:24:49.838Z,16.95
2023-01-29T20:27:16.180Z,15.95
2023-01-29T20:29:42.476Z,16.48
2023-01-29T20:32:08.824Z,16.88
2023-01-29T20:34:35.544Z,16.70
2023-01-29T20:37:02.021Z,15.55
2023-01-29T20:39:28.465Z,17.80
2023-01-29T20:41:54.820Z,14.30
2023-01-29T20:44:21.243Z,15.80
2023-01-29T20:46:47.524Z,16.25
2023-01-29T20:49:13.839Z,15.57
2023-01-29T20:51:40.186Z,14.73
2023-01-29T20:54:06.547Z,16.27
2023-01-29T20:56:36.058Z,14.10
2023-01-29T20:59:06.208Z,11.23
2023-01-29T21:01:32.728Z,12.50
2023-01-29T21:03:59.042Z,11.23
2023-01-29T21:06:25.371Z,13.07
2023-01-29T21:08:51.654Z,13.45
2023-01-29T21:11:18.101Z,12.43
2023-01-29T21:13:44.390Z,12.70
2023-01-29T21:16:10.783Z,13.75
2023-01-29T21:18:37.311Z,13.63
2023-01-29T21:21:03.852Z,13.18
2023-01-29T21:23:30.128Z,13.23
2023-01-29T21:26:04.104Z,11.68
2023-01-29T21:28:30.660Z,13.55
2023-01-29T21:31:05.297Z,12.23
2023-01-29T21:33:31.608Z,12.77
2023-01-29T21:36:01.914Z,12.40
2023-01-29T21:38:28.270Z,12.32
2023-01-29T21:41:03.256Z,11.43
2023-01-29T21:43:29.642Z,11.82
2023-01-29T21:45:58.231Z,11.15
2023-01-29T21:48:25.257Z,11.95
2023-01-29T21:50:52.413Z,12.93
2023-01-29T21:53:19.327Z,12.48
2023-01-29T21:55:46.265Z,12.35
2023-01-29T21:58:14.407Z,11.52
2023-01-29T22:00:41.014Z,12.18
2023-01-29T22:03:07.301Z,11.38
2023-01-29T22:05:33.991Z,13.95
2023-01-29T22:08:00.376Z,12.07
2023-01-29T22:10:26.867Z,12.25
2023-01-29T22:12:53.195Z,12.00
2023-01-29T22:15:20.323Z,11.02
2023-01-29T22:17:47.513Z,11.20
2023-01-29T22:20:14.628Z,11.85
2023-01-29T22:22:41.047Z,12.07
2023-01-29T22:25:08.178Z,10.50
2023-01-29T22:27:34.786Z,11.90
2023-01-29T22:30:01.264Z,11.60
2023-01-29T22:32:27.659Z,13.68
2023-01-29T22:34:53.993Z,10.57
2023-01-29T22:37:20.410Z,11.85
2023-01-29T22:39:46.740Z,12.60
2023-01-29T22:42:13.069Z,12.27
2023-01-29T22:44:39.424Z,12.48
2023-01-29T22:47:05.770Z,11.10
2023-01-29T22:49:32.093Z,12.23
2023-01-29T22:51:58.439Z,12.00
2023-01-29T22:54:24.736Z,12.50
2023-01-29T22:56:51.015Z,14.30
2023-01-29T22:59:17.318Z,11.25
2023-01-29T23:01:43.660Z,9.07
2023-01-29T23:04:10.061Z,10.45
2023-01-29T23:06:36.435Z,9.40
2023-01-29T23:09:02.786Z,11.25
2023-01-29T23:11:29.065Z,9.93
2023-01-29T23:13:55.350Z,9.10
2023-01-29T23:16:26.246Z,9.00
2023-01-29T23:18:55.151Z,7.70
2023-01-29T23:21:23.218Z,7.38
2023-01-29T23:23:49.682Z,8.07
2023-01-29T23:26:15.959Z,8.90
2023-01-29T23:28:42.966Z,8.27
2023-01-29T23:31:09.408Z,8.05
2023-01-29T23:33:35.754Z,7.85
2023-01-29T23:36:02.114Z,7.68
2023-01-29T23:38:28.396Z,8.77
2023-01-29T23:40:54.726Z,8.23
2023-01-29T23:43:21.102Z,8.95
2023-01-29T23:45:47.466Z,8.82
2023-01-29T23:48:13.741Z,8.77
2023-01-29T23:50:40.044Z,8.35
2023-01-29T23:53:06.319Z,8.32
2023-01-29T23:55:32.606Z,8.40
2023-01-29T23:57:58.976Z,7.97
